Time;durP1;ratioP1;P1;durP2;ratioP2;P2;SDS_P1;SDS_P2;PMS_P1;PMS_P2;Temp;Humidity;BMP_temperature;BMP_pressure;BME280_temperature;BME280_humidity;BME280_pressure;Samples;Min_cycle;Max_cycle;Signal;HPM_P1;HPM_P2
2022/07/18 00:01:27;;;;;;;;;;;;;;;;;;5006782;28;19913;-69
2022/07/18 00:03:52;;;;;;;;;;;;;;;;;;5007261;28;20252;-68
2022/07/18 00:06:17;;;;;;;;;;;;;;;;;;5008508;28;19909;-68
2022/07/18 00:08:42;;;;;;;;;;;;;;;;;;5002322;28;19991;-69
2022/07/18 00:11:07;;;;;;;;;;;;;;;;;;5008938;28;20346;-68
2022/07/18 00:13:33;;;;;;;;;;;;;;;;;;5007996;28;19909;-68
2022/07/18 00:15:58;;;;;;;;;;;;;;;;;;5003978;28;19922;-69
2022/07/18 00:18:23;;;;;;;;;;;;;;;;;;4997958;28;19913;-68
2022/07/18 00:20:48;;;;;;;;;;;;;;;;;;5003943;28;20279;-69
2022/07/18 00:23:13;;;;;;;;;;;;;;;;;;5001968;28;20255;-68
2022/07/18 00:25:38;;;;;;;;;;;;;;;;;;5009046;28;19921;-68
2022/07/18 00:28:03;;;;;;;;;;;;;;;;;;5004171;28;19921;-68
2022/07/18 00:30:28;;;;;;;;;;;;;;;;;;5003049;28;20003;-68
2022/07/18 00:32:53;;;;;;;;;;;;;;;;;;5005864;28;19914;-68
2022/07/18 00:35:18;;;;;;;;;;;;;;;;;;4996369;28;19910;-68
2022/07/18 00:37:43;;;;;;;;;;;;;;;;;;4997736;28;20002;-68
2022/07/18 00:40:09;;;;;;;;;;;;;;;;;;4998375;28;19917;-68
2022/07/18 00:42:34;;;;;;;;;;;;;;;;;;5005470;28;19913;-68
2022/07/18 00:44:59;;;;;;;;;;;;;;;;;;5004967;28;19961;-68
2022/07/18 00:47:24;;;;;;;;;;;;;;;;;;5008293;28;20340;-68
2022/07/18 00:49:49;;;;;;;;;;;;;;;;;;5005359;28;19968;-68
2022/07/18 00:52:14;;;;;;;;;;;;;;;;;;5000259;28;20415;-68
2022/07/18 00:54:39;;;;;;;;;;;;;;;;;;5005220;28;19917;-68
2022/07/18 00:57:05;;;;;;;;;;;;;;;;;;5009206;28;20244;-68
2022/07/18 01:02:13;;;;;;;;;;;;;;;;;;5003554;28;19952;-68
2022/07/18 01:04:38;;;;;;;;;;;;;;;;;;5002096;28;19906;-68
2022/07/18 01:07:03;;;;;;;;;;;;;;;;;;5005922;28;19952;-68
2022/07/18 01:09:28;;;;;;;;;;;;;;;;;;5004524;28;19913;-68
2022/07/18 01:11:54;;;;;;;;;;;;;;;;;;5003615;28;20723;-68
2022/07/18 01:14:19;;;;;;;;;;;;;;;;;;5001431;28;19917;-68
2022/07/18 01:16:45;;;;;;;;;;;;;;;;;;5006577;28;19913;-68
2022/07/18 01:19:10;;;;;;;;;;;;;;;;;;5000969;28;19916;-68
2022/07/18 01:21:36;;;;;;;;;;;;;;;;;;5006041;28;19909;-68
2022/07/18 01:24:01;;;;;;;;;;;;;;;;;;5005594;28;19913;-68
2022/07/18 01:26:26;;;;;;;;;;;;;;;;;;5004364;28;19956;-68
2022/07/18 01:28:51;;;;;;;;;;;;;;;;;;5005482;28;19913;-68
2022/07/18 01:31:16;;;;;;;;;;;;;;;;;;5001383;28;19936;-68
2022/07/18 01:33:42;;;;;;;;;;;;;;;;;;5005394;28;19971;-69
2022/07/18 01:36:07;;;;;;;;;;;;;;;;;;5002680;28;20019;-68
2022/07/18 01:38:32;;;;;;;;;;;;;;;;;;5002220;28;19956;-68
2022/07/18 01:40:57;;;;;;;;;;;;;;;;;;5008337;28;19913;-69
2022/07/18 01:43:22;;;;;;;;;;;;;;;;;;5004178;28;19916;-68
2022/07/18 01:45:47;;;;;;;;;;;;;;;;;;5009320;28;20240;-68
2022/07/18 01:48:12;;;;;;;;;;;;;;;;;;5009373;28;20419;-69
2022/07/18 01:50:37;;;;;;;;;;;;;;;;;;5004591;28;19921;-68
2022/07/18 01:53:02;;;;;;;;;;;;;;;;;;5007830;28;19909;-68
2022/07/18 01:55:27;;;;;;;;;;;;;;;;;;5009672;28;19941;-69
2022/07/18 01:57:52;;;;;;;;;;;;;;;;;;5014194;28;19909;-68
2022/07/18 02:00:17;;;;;;;;;;;;;;;;;;5008845;28;19913;-68
2022/07/18 02:02:43;;;;;;;;;;;;;;;;;;5006668;28;19937;-68
2022/07/18 02:05:08;;;;;;;;;;;;;;;;;;5008930;28;19996;-69
2022/07/18 02:07:33;;;;;;;;;;;;;;;;;;5008499;28;19932;-68
2022/07/18 02:09:59;;;;;;;;;;;;;;;;;;5006909;28;19913;-68
2022/07/18 02:12:24;;;;;;;;;;;;;;;;;;5007989;28;19932;-68
2022/07/18 02:14:49;;;;;;;;;;;;;;;;;;5003639;28;19924;-68
2022/07/18 02:17:14;;;;;;;;;;;;;;;;;;5010996;28;19913;-69
2022/07/18 02:19:39;;;;;;;;;;;;;;;;;;5007233;28;19920;-69
2022/07/18 02:22:04;;;;;;;;;;;;;;;;;;5008481;28;20046;-69
2022/07/18 02:24:29;;;;;;;;;;;;;;;;;;5008920;28;19917;-69
2022/07/18 02:26:54;;;;;;;;;;;;;;;;;;5010237;28;19948;-68
2022/07/18 02:29:19;;;;;;;;;;;;;;;;;;5011301;28;20382;-68
2022/07/18 02:31:44;;;;;;;;;;;;;;;;;;5006853;28;19918;-69
2022/07/18 02:34:10;;;;;;;;;;;;;;;;;;5013717;28;19963;-69
2022/07/18 02:36:35;;;;;;;;;;;;;;;;;;5014881;28;19917;-69
2022/07/18 02:39:00;;;;;;;;;;;;;;;;;;5009549;28;19909;-69
2022/07/18 02:41:25;;;;;;;;;;;;;;;;;;5009656;28;20170;-69
2022/07/18 02:43:50;;;;;;;;;;;;;;;;;;5013131;28;20343;-69
2022/07/18 02:46:15;;;;;;;;;;;;;;;;;;5013862;28;19924;-69
2022/07/18 02:48:40;;;;;;;;;;;;;;;;;;5009104;28;19925;-69
2022/07/18 02:51:05;;;;;;;;;;;;;;;;;;5005181;28;19921;-69
2022/07/18 02:53:30;;;;;;;;;;;;;;;;;;5023945;28;20615;-69
2022/07/18 02:55:55;;;;;;;;;;;;;;;;;;5006865;28;20383;-69
2022/07/18 02:58:21;;;;;;;;;;;;;;;;;;5010516;28;20336;-69
2022/07/18 03:00:46;;;;;;;;;;;;;;;;;;5003769;28;19917;-69
2022/07/18 03:03:11;;;;;;;;;;;;;;;;;;5005179;28;19996;-69
2022/07/18 03:05:36;;;;;;;;;;;;;;;;;;5009115;28;20280;-69
2022/07/18 03:08:01;;;;;;;;;;;;;;;;;;5008086;28;19913;-69
2022/07/18 03:10:26;;;;;;;;;;;;;;;;;;5003912;28;20008;-69
2022/07/18 03:12:51;;;;;;;;;;;;;;;;;;5007542;28;19913;-69
2022/07/18 03:15:16;;;;;;;;;;;;;;;;;;5003715;28;20327;-69
2022/07/18 03:17:41;;;;;;;;;;;;;;;;;;5006075;28;19935;-69
2022/07/18 03:20:06;;;;;;;;;;;;;;;;;;5009524;28;19917;-69
2022/07/18 03:22:33;;;;;;;;;;;;;;;;;;5008388;28;20353;-69
2022/07/18 03:24:58;;;;;;;;;;;;;;;;;;5007936;28;20451;-69
2022/07/18 03:27:23;;;;;;;;;;;;;;;;;;5005973;28;20287;-69
2022/07/18 03:29:48;;;;;;;;;;;;;;;;;;5009174;28;19920;-69
2022/07/18 03:32:13;;;;;;;;;;;;;;;;;;5004240;28;19961;-69
2022/07/18 03:34:38;;;;;;;;;;;;;;;;;;5010019;28;19959;-69
2022/07/18 03:37:03;;;;;;;;;;;;;;;;;;5009392;28;19913;-69
2022/07/18 03:39:28;;;;;;;;;;;;;;;;;;5009446;28;20360;-69
2022/07/18 03:41:53;;;;;;;;;;;;;;;;;;5003666;28;19964;-69
2022/07/18 03:44:19;;;;;;;;;;;;;;;;;;5009394;28;19971;-69
2022/07/18 03:46:44;;;;;;;;;;;;;;;;;;5005249;28;19917;-69
2022/07/18 03:49:09;;;;;;;;;;;;;;;;;;5008349;28;19917;-69
2022/07/18 03:51:34;;;;;;;;;;;;;;;;;;5005814;28;19910;-69
2022/07/18 03:53:59;;;;;;;;;;;;;;;;;;5001672;28;20012;-69
2022/07/18 03:56:24;;;;;;;;;;;;;;;;;;5007479;28;19955;-69
2022/07/18 03:58:49;;;;;;;;;;;;;;;;;;5000709;28;19913;-69
2022/07/18 04:01:14;;;;;;;;;;;;;;;;;;5006786;28;19913;-69
2022/07/18 04:03:39;;;;;;;;;;;;;;;;;;5004703;28;19913;-69
2022/07/18 04:06:04;;;;;;;;;;;;;;;;;;5007370;28;19913;-69
2022/07/18 04:08:30;;;;;;;;;;;;;;;;;;5007738;28;20727;-69
2022/07/18 04:10:55;;;;;;;;;;;;;;;;;;5002635;28;19963;-69
2022/07/18 04:13:20;;;;;;;;;;;;;;;;;;5002094;28;19917;-69
2022/07/18 04:15:45;;;;;;;;;;;;;;;;;;5000111;28;20031;-69
2022/07/18 04:18:10;;;;;;;;;;;;;;;;;;5008526;28;19909;-69
2022/07/18 04:20:35;;;;;;;;;;;;;;;;;;5008128;28;19914;-69
2022/07/18 04:23:00;;;;;;;;;;;;;;;;;;5009583;28;20286;-69
2022/07/18 04:25:25;;;;;;;;;;;;;;;;;;5005759;28;19919;-69
2022/07/18 04:27:50;;;;;;;;;;;;;;;;;;5006477;28;19909;-69
2022/07/18 04:30:16;;;;;;;;;;;;;;;;;;5008622;28;19905;-69
2022/07/18 04:32:41;;;;;;;;;;;;;;;;;;5006833;28;19935;-69
2022/07/18 04:35:06;;;;;;;;;;;;;;;;;;5007432;28;19920;-69
2022/07/18 04:37:31;;;;;;;;;;;;;;;;;;5005417;28;19910;-69
2022/07/18 04:39:56;;;;;;;;;;;;;;;;;;5008323;28;19940;-70
2022/07/18 04:42:21;;;;;;;;;;;;;;;;;;5007089;28;20000;-69
2022/07/18 04:44:47;;;;;;;;;;;;;;;;;;5008236;28;19914;-69
2022/07/18 04:47:12;;;;;;;;;;;;;;;;;;5004320;28;19921;-69
2022/07/18 04:49:37;;;;;;;;;;;;;;;;;;5009235;28;19917;-69
2022/07/18 04:52:02;;;;;;;;;;;;;;;;;;4997372;28;19913;-69
2022/07/18 04:54:27;;;;;;;;;;;;;;;;;;5005658;28;19914;-69
2022/07/18 04:56:52;;;;;;;;;;;;;;;;;;5001896;28;20009;-69
2022/07/18 04:59:17;;;;;;;;;;;;;;;;;;5008060;28;19913;-69
2022/07/18 05:01:42;;;;;;;;;;;;;;;;;;5002807;28;20004;-69
2022/07/18 05:04:07;;;;;;;;;;;;;;;;;;5009162;28;19948;-69
2022/07/18 05:06:32;;;;;;;;;;;;;;;;;;5003585;28;20112;-68
2022/07/18 05:08:57;;;;;;;;;;;;;;;;;;5008729;28;19929;-69
2022/07/18 05:11:23;;;;;;;;;;;;;;;;;;5017929;28;19913;-68
2022/07/18 05:13:48;;;;;;;;;;;;;;;;;;5004253;28;19917;-69
2022/07/18 05:16:13;;;;;;;;;;;;;;;;;;5002725;28;19925;-68
2022/07/18 05:18:38;;;;;;;;;;;;;;;;;;5008752;28;19916;-68
2022/07/18 05:21:03;;;;;;;;;;;;;;;;;;5000267;28;19924;-68
2022/07/18 05:23:28;;;;;;;;;;;;;;;;;;5007475;28;19913;-68
2022/07/18 05:25:53;;;;;;;;;;;;;;;;;;4999001;28;19909;-67
2022/07/18 05:28:18;;;;;;;;;;;;;;;;;;5004119;28;20403;-67
2022/07/18 05:30:43;;;;;;;;;;;;;;;;;;5001393;28;19916;-69
2022/07/18 05:33:08;;;;;;;;;;;;;;;;;;4997336;28;20360;-69
2022/07/18 05:35:34;;;;;;;;;;;;;;;;;;4995615;28;19935;-68
2022/07/18 05:37:59;;;;;;;;;;;;;;;;;;5002189;28;19913;-67
2022/07/18 05:40:24;;;;;;;;;;;;;;;;;;5003457;28;20345;-71
2022/07/18 05:42:49;;;;;;;;;;;;;;;;;;4999693;28;19960;-67
2022/07/18 05:45:14;;;;;;;;;;;;;;;;;;4998383;28;20006;-68
2022/07/18 05:47:39;;;;;;;;;;;;;;;;;;5002339;28;20531;-70
2022/07/18 05:50:05;;;;;;;;;;;;;;;;;;5000996;28;19964;-69
2022/07/18 05:52:30;;;;;;;;;;;;;;;;;;5002584;28;19910;-67
2022/07/18 05:54:55;;;;;;;;;;;;;;;;;;5000555;28;19921;-67
2022/07/18 05:57:20;;;;;;;;;;;;;;;;;;4999674;28;19967;-67
2022/07/18 05:59:45;;;;;;;;;;;;;;;;;;5004123;28;20000;-67
2022/07/18 06:02:10;;;;;;;;;;;;;;;;;;5003483;28;19914;-67
2022/07/18 06:04:36;;;;;;;;;;;;;;;;;;5003467;28;19917;-67
2022/07/18 06:07:01;;;;;;;;;;;;;;;;;;5007521;28;19913;-67
2022/07/18 06:09:30;;;;;;;;;;;;;;;;;;4999461;28;19920;-68
2022/07/18 06:11:55;;;;;;;;;;;;;;;;;;5003470;28;19917;-67
2022/07/18 06:14:20;;;;;;;;;;;;;;;;;;5001304;28;19918;-67
2022/07/18 06:16:45;;;;;;;;;;;;;;;;;;5003955;28;19913;-67
2022/07/18 06:19:10;;;;;;;;;;;;;;;;;;5002137;28;19991;-67
2022/07/18 06:21:35;;;;;;;;;;;;;;;;;;4997937;28;19917;-67
2022/07/18 06:24:00;;;;;;;;;;;;;;;;;;5003744;28;19914;-67
2022/07/18 06:26:25;;;;;;;;;;;;;;;;;;5008131;28;20021;-67
2022/07/18 06:28:51;;;;;;;;;;;;;;;;;;5010415;28;19963;-68
2022/07/18 06:31:16;;;;;;;;;;;;;;;;;;5011928;28;20316;-67
2022/07/18 06:33:42;;;;;;;;;;;;;;;;;;5001809;28;19943;-67
2022/07/18 06:36:07;;;;;;;;;;;;;;;;;;5004900;28;19909;-67
2022/07/18 06:38:32;;;;;;;;;;;;;;;;;;4998178;28;19917;-67
2022/07/18 06:40:57;;;;;;;;;;;;;;;;;;5000420;28;19913;-68
2022/07/18 06:43:22;;;;;;;;;;;;;;;;;;5001951;28;19914;-67
2022/07/18 06:45:47;;;;;;;;;;;;;;;;;;5006769;28;19996;-67
2022/07/18 06:48:12;;;;;;;;;;;;;;;;;;5001986;28;19917;-67
2022/07/18 06:50:37;;;;;;;;;;;;;;;;;;5002048;28;20483;-67
2022/07/18 06:53:02;;;;;;;;;;;;;;;;;;5003352;28;20267;-67
2022/07/18 06:55:27;;;;;;;;;;;;;;;;;;5001392;28;20424;-67
2022/07/18 06:57:52;;;;;;;;;;;;;;;;;;5000756;28;19952;-67
2022/07/18 07:00:18;;;;;;;;;;;;;;;;;;5006790;28;19920;-67
2022/07/18 07:02:43;;;;;;;;;;;;;;;;;;5005744;28;19998;-71
2022/07/18 07:05:08;;;;;;;;;;;;;;;;;;5003043;28;19964;-71
2022/07/18 07:07:33;;;;;;;;;;;;;;;;;;5007354;28;19910;-70
2022/07/18 07:09:58;;;;;;;;;;;;;;;;;;5002866;28;20311;-70
2022/07/18 07:12:23;;;;;;;;;;;;;;;;;;5003383;28;19913;-71
2022/07/18 07:14:48;;;;;;;;;;;;;;;;;;4998018;28;19921;-70
2022/07/18 07:17:13;;;;;;;;;;;;;;;;;;5005850;28;19920;-71
2022/07/18 07:19:38;;;;;;;;;;;;;;;;;;5001698;28;20399;-73
2022/07/18 07:22:03;;;;;;;;;;;;;;;;;;4994700;28;20009;-74
2022/07/18 07:24:28;;;;;;;;;;;;;;;;;;5002843;28;19924;-73
2022/07/18 07:26:54;;;;;;;;;;;;;;;;;;5001573;28;19924;-73
2022/07/18 07:29:19;;;;;;;;;;;;;;;;;;4996444;28;19913;-72
2022/07/18 07:31:44;;;;;;;;;;;;;;;;;;4998387;28;20293;-72
2022/07/18 07:34:09;;;;;;;;;;;;;;;;;;4998275;28;20224;-71
2022/07/18 07:36:34;;;;;;;;;;;;;;;;;;5013771;28;19924;-73
2022/07/18 07:38:59;;;;;;;;;;;;;;;;;;4994089;28;19913;-73
2022/07/18 07:41:24;;;;;;;;;;;;;;;;;;4994257;28;20565;-72
2022/07/18 07:43:49;;;;;;;;;;;;;;;;;;4998188;28;19945;-72
2022/07/18 07:46:14;;;;;;;;;;;;;;;;;;4996186;28;20062;-72
2022/07/18 07:48:40;;;;;;;;;;;;;;;;;;4995915;28;20518;-72
2022/07/18 07:51:05;;;;;;;;;;;;;;;;;;4996441;28;20339;-72
2022/07/18 07:53:30;;;;;;;;;;;;;;;;;;4996994;28;19922;-72
2022/07/18 07:55:55;;;;;;;;;;;;;;;;;;4995793;28;19924;-72
2022/07/18 07:58:20;;;;;;;;;;;;;;;;;;4998459;28;19932;-71
2022/07/18 08:00:45;;;;;;;;;;;;;;;;;;5000717;28;19928;-71
2022/07/18 08:03:10;;;;;;;;;;;;;;;;;;4994546;28;20409;-71
2022/07/18 08:05:37;;;;;;;;;;;;;;;;;;4998637;28;19924;-70
2022/07/18 08:08:02;;;;;;;;;;;;;;;;;;5000027;28;19917;-70
2022/07/18 08:10:27;;;;;;;;;;;;;;;;;;4996508;28;19925;-70
2022/07/18 08:12:52;;;;;;;;;;;;;;;;;;5000502;28;19928;-71
2022/07/18 08:15:17;;;;;;;;;;;;;;;;;;4995677;28;19916;-71
2022/07/18 08:17:42;;;;;;;;;;;;;;;;;;5015157;28;19919;-72
2022/07/18 08:20:07;;;;;;;;;;;;;;;;;;4995842;28;19918;-71
2022/07/18 08:22:32;;;;;;;;;;;;;;;;;;4997378;28;19917;-71
2022/07/18 08:24:58;;;;;;;;;;;;;;;;;;4997509;28;20349;-71
2022/07/18 08:27:23;;;;;;;;;;;;;;;;;;4999046;28;19917;-71
2022/07/18 08:29:48;;;;;;;;;;;;;;;;;;4997150;28;20370;-71
2022/07/18 08:32:13;;;;;;;;;;;;;;;;;;4998211;28;19914;-71
2022/07/18 08:34:38;;;;;;;;;;;;;;;;;;4996627;28;19975;-71
2022/07/18 08:37:03;;;;;;;;;;;;;;;;;;4996655;28;19936;-73
2022/07/18 08:39:28;;;;;;;;;;;;;;;;;;4995453;28;19917;-71
2022/07/18 08:41:53;;;;;;;;;;;;;;;;;;4993791;28;20504;-71
2022/07/18 08:44:18;;;;;;;;;;;;;;;;;;4995350;28;19921;-71
2022/07/18 08:46:44;;;;;;;;;;;;;;;;;;4994266;28;19913;-71
2022/07/18 08:49:09;;;;;;;;;;;;;;;;;;4992829;28;20012;-71
2022/07/18 08:51:34;;;;;;;;;;;;;;;;;;4997296;28;19917;-71
2022/07/18 08:53:59;;;;;;;;;;;;;;;;;;4997510;28;19917;-71
2022/07/18 08:56:24;;;;;;;;;;;;;;;;;;4995715;28;19913;-71
2022/07/18 08:58:49;;;;;;;;;;;;;;;;;;4997289;28;19913;-71
2022/07/18 09:01:14;;;;;;;;;;;;;;;;;;4995424;28;20377;-72
2022/07/18 09:03:39;;;;;;;;;;;;;;;;;;4996650;28;19924;-71
2022/07/18 09:06:04;;;;;;;;;;;;;;;;;;4996990;28;20040;-71
2022/07/18 09:08:30;;;;;;;;;;;;;;;;;;4996682;28;19917;-71
2022/07/18 09:10:55;;;;;;;;;;;;;;;;;;4995021;28;20440;-71
2022/07/18 09:13:20;;;;;;;;;;;;;;;;;;4996199;28;19917;-71
2022/07/18 09:15:45;;;;;;;;;;;;;;;;;;4994686;28;20229;-71
2022/07/18 09:18:10;;;;;;;;;;;;;;;;;;4995920;28;20032;-71
2022/07/18 09:20:35;;;;;;;;;;;;;;;;;;4994819;28;19917;-71
2022/07/18 09:23:00;;;;;;;;;;;;;;;;;;4995208;28;19917;-70
2022/07/18 09:25:26;;;;;;;;;;;;;;;;;;4996878;28;19917;-69
2022/07/18 09:27:51;;;;;;;;;;;;;;;;;;5000333;28;20083;-71
2022/07/18 09:30:16;;;;;;;;;;;;;;;;;;4998909;28;19914;-70
2022/07/18 09:32:41;;;;;;;;;;;;;;;;;;4996909;28;19921;-70
2022/07/18 09:35:06;;;;;;;;;;;;;;;;;;4999696;28;19921;-69
2022/07/18 09:37:31;;;;;;;;;;;;;;;;;;4998513;28;19917;-71
2022/07/18 09:39:56;;;;;;;;;;;;;;;;;;4997847;28;20545;-72
2022/07/18 09:42:21;;;;;;;;;;;;;;;;;;4998985;28;19960;-71
2022/07/18 09:44:47;;;;;;;;;;;;;;;;;;4995296;28;19968;-70
2022/07/18 09:47:12;;;;;;;;;;;;;;;;;;4998464;28;19921;-69
2022/07/18 09:49:40;;;;;;;;;;;;;;;;;;4994868;28;19944;-71
2022/07/18 09:52:05;;;;;;;;;;;;;;;;;;4997521;28;19917;-70
2022/07/18 09:54:30;;;;;;;;;;;;;;;;;;4994513;28;19929;-70
2022/07/18 09:56:55;;;;;;;;;;;;;;;;;;4997444;28;19936;-70
2022/07/18 09:59:20;;;;;;;;;;;;;;;;;;4998165;28;19918;-70
2022/07/18 10:01:46;;;;;;;;;;;;;;;;;;4996064;28;19921;-70
2022/07/18 10:04:11;;;;;;;;;;;;;;;;;;5000369;28;20419;-70
2022/07/18 10:06:38;;;;;;;;;;;;;;;;;;4999531;28;19917;-70
2022/07/18 10:09:03;;;;;;;;;;;;;;;;;;5000548;28;20016;-70
2022/07/18 10:11:28;;;;;;;;;;;;;;;;;;4996834;28;19959;-70
2022/07/18 10:13:53;;;;;;;;;;;;;;;;;;5000261;28;20110;-70
2022/07/18 10:16:18;;;;;;;;;;;;;;;;;;4997184;28;20277;-70
2022/07/18 10:18:43;;;;;;;;;;;;;;;;;;5002097;28;20390;-69
2022/07/18 10:21:09;;;;;;;;;;;;;;;;;;4998729;28;20137;-69
2022/07/18 10:23:34;;;;;;;;;;;;;;;;;;4998448;28;19913;-69
2022/07/18 10:25:59;;;;;;;;;;;;;;;;;;4997386;28;19913;-70
2022/07/18 10:28:24;;;;;;;;;;;;;;;;;;4997212;28;19918;-68
2022/07/18 10:30:53;;;;;;;;;;;;;;;;;;5002414;28;19952;-69
2022/07/18 10:33:18;;;;;;;;;;;;;;;;;;4997793;28;19964;-69
2022/07/18 10:35:44;;;;;;;;;;;;;;;;;;5002430;28;19936;-69
2022/07/18 10:38:09;;;;;;;;;;;;;;;;;;4997733;28;19918;-70
2022/07/18 10:40:34;;;;;;;;;;;;;;;;;;4999842;28;19917;-70
2022/07/18 10:43:00;;;;;;;;;;;;;;;;;;5003840;28;20319;-70
2022/07/18 10:45:25;;;;;;;;;;;;;;;;;;4998999;28;20059;-70
2022/07/18 10:47:50;;;;;;;;;;;;;;;;;;4998998;28;19917;-73
2022/07/18 10:50:15;;;;;;;;;;;;;;;;;;5000415;28;20007;-75
2022/07/18 10:52:40;;;;;;;;;;;;;;;;;;5000623;28;20655;-70
2022/07/18 10:55:05;;;;;;;;;;;;;;;;;;4999207;28;19918;-70
2022/07/18 10:57:30;;;;;;;;;;;;;;;;;;4996864;28;19917;-72
2022/07/18 10:59:55;;;;;;;;;;;;;;;;;;5000494;28;19917;-69
2022/07/18 11:02:21;;;;;;;;;;;;;;;;;;5000225;28;19949;-71
2022/07/18 11:04:46;;;;;;;;;;;;;;;;;;4999595;28;19917;-71
2022/07/18 11:07:11;;;;;;;;;;;;;;;;;;4996360;28;20260;-68
2022/07/18 11:09:36;;;;;;;;;;;;;;;;;;4995478;28;19918;-69
2022/07/18 11:12:01;;;;;;;;;;;;;;;;;;4995103;28;20031;-69
2022/07/18 11:14:26;;;;;;;;;;;;;;;;;;4997277;28;19979;-69
2022/07/18 11:16:51;;;;;;;;;;;;;;;;;;5001157;28;19924;-69
2022/07/18 11:19:16;;;;;;;;;;;;;;;;;;4998405;28;19917;-70
2022/07/18 11:21:42;;;;;;;;;;;;;;;;;;4996236;28;20023;-70
2022/07/18 11:24:07;;;;;;;;;;;;;;;;;;4998523;28;19958;-69
2022/07/18 11:26:32;;;;;;;;;;;;;;;;;;5002252;28;19917;-69
2022/07/18 11:28:57;;;;;;;;;;;;;;;;;;5001481;28;19980;-67
2022/07/18 11:31:22;;;;;;;;;;;;;;;;;;4999208;28;19925;-67
2022/07/18 11:33:47;;;;;;;;;;;;;;;;;;4999536;28;19943;-69
2022/07/18 11:36:12;;;;;;;;;;;;;;;;;;4995199;28;19918;-68
2022/07/18 11:38:37;;;;;;;;;;;;;;;;;;4998481;28;19918;-68
2022/07/18 11:41:03;;;;;;;;;;;;;;;;;;4996915;28;19917;-68
2022/07/18 11:43:28;;;;;;;;;;;;;;;;;;4996770;28;19917;-69
2022/07/18 11:45:53;;;;;;;;;;;;;;;;;;5001703;28;19917;-67
2022/07/18 11:48:18;;;;;;;;;;;;;;;;;;4998250;28;20371;-68
2022/07/18 11:50:44;;;;;;;;;;;;;;;;;;5000677;28;20024;-68
2022/07/18 11:53:09;;;;;;;;;;;;;;;;;;4999016;28;19952;-68
2022/07/18 11:55:34;;;;;;;;;;;;;;;;;;5001688;28;20138;-68
2022/07/18 11:58:00;;;;;;;;;;;;;;;;;;4998874;28;19976;-69
2022/07/18 12:00:25;;;;;;;;;;;;;;;;;;4995853;28;19975;-70
2022/07/18 12:02:50;;;;;;;;;;;;;;;;;;5000394;28;19917;-68
2022/07/18 12:05:15;;;;;;;;;;;;;;;;;;4998765;28;19917;-69
2022/07/18 12:07:40;;;;;;;;;;;;;;;;;;5000855;28;19917;-69
2022/07/18 12:10:05;;;;;;;;;;;;;;;;;;4999980;28;19921;-68
2022/07/18 12:12:30;;;;;;;;;;;;;;;;;;4999824;28;19917;-69
2022/07/18 12:14:55;;;;;;;;;;;;;;;;;;4997880;28;19925;-69
2022/07/18 12:17:20;;;;;;;;;;;;;;;;;;5000912;28;20281;-69
2022/07/18 12:19:45;;;;;;;;;;;;;;;;;;5000664;28;19913;-68
2022/07/18 12:22:11;;;;;;;;;;;;;;;;;;4999695;28;20336;-69
2022/07/18 12:24:36;;;;;;;;;;;;;;;;;;4999313;28;20452;-68
2022/07/18 12:27:01;;;;;;;;;;;;;;;;;;5001554;28;19924;-68
2022/07/18 12:29:26;;;;;;;;;;;;;;;;;;4998578;28;20276;-71
2022/07/18 12:31:51;;;;;;;;;;;;;;;;;;5014479;28;20252;-68
2022/07/18 12:34:19;;;;;;;;;;;;;;;;;;4994922;28;20352;-70
2022/07/18 12:36:44;;;;;;;;;;;;;;;;;;4999807;28;20012;-69
2022/07/18 12:39:09;;;;;;;;;;;;;;;;;;4999463;28;20014;-71
2022/07/18 12:41:34;;;;;;;;;;;;;;;;;;4996765;28;20012;-71
2022/07/18 12:43:59;;;;;;;;;;;;;;;;;;4995393;28;19951;-71
2022/07/18 12:46:24;;;;;;;;;;;;;;;;;;4999644;28;19924;-70
2022/07/18 12:48:49;;;;;;;;;;;;;;;;;;5001447;28;19925;-71
2022/07/18 12:51:14;;;;;;;;;;;;;;;;;;4999611;28;19917;-70
2022/07/18 12:53:40;;;;;;;;;;;;;;;;;;4996840;28;19991;-70
2022/07/18 12:56:05;;;;;;;;;;;;;;;;;;4997948;28;19940;-70
2022/07/18 12:58:30;;;;;;;;;;;;;;;;;;5015220;28;20287;-69
2022/07/18 13:00:56;;;;;;;;;;;;;;;;;;4998894;28;20651;-69
2022/07/18 13:03:21;;;;;;;;;;;;;;;;;;5000918;28;19913;-69
2022/07/18 13:05:46;;;;;;;;;;;;;;;;;;4996829;28;20364;-68
2022/07/18 13:08:11;;;;;;;;;;;;;;;;;;4996550;28;19919;-68
2022/07/18 13:10:36;;;;;;;;;;;;;;;;;;4993732;28;19921;-68
2022/07/18 13:13:01;;;;;;;;;;;;;;;;;;4997070;28;19931;-70
2022/07/18 13:15:26;;;;;;;;;;;;;;;;;;4994871;28;19940;-69
2022/07/18 13:17:51;;;;;;;;;;;;;;;;;;4995506;28;20019;-69
2022/07/18 13:20:16;;;;;;;;;;;;;;;;;;4995695;28;19913;-68
2022/07/18 13:22:41;;;;;;;;;;;;;;;;;;4996310;28;20008;-69
2022/07/18 13:25:07;;;;;;;;;;;;;;;;;;4997812;28;19918;-68
2022/07/18 13:27:32;;;;;;;;;;;;;;;;;;5000316;28;19924;-69
2022/07/18 13:29:57;;;;;;;;;;;;;;;;;;4998773;28;19918;-69
2022/07/18 13:32:22;;;;;;;;;;;;;;;;;;4996405;28;20008;-68
2022/07/18 13:34:47;;;;;;;;;;;;;;;;;;4998190;28;19922;-69
2022/07/18 13:37:12;;;;;;;;;;;;;;;;;;4999382;28;20217;-69
2022/07/18 13:39:37;;;;;;;;;;;;;;;;;;4998316;28;19963;-69
2022/07/18 13:42:05;;;;;;;;;;;;;;;;;;4998030;28;20389;-68
2022/07/18 13:44:30;;;;;;;;;;;;;;;;;;4998787;28;21199;-69
2022/07/18 13:46:55;;;;;;;;;;;;;;;;;;4999137;28;20396;-68
2022/07/18 13:49:20;;;;;;;;;;;;;;;;;;4999659;28;20368;-68
2022/07/18 13:51:45;;;;;;;;;;;;;;;;;;4995534;28;20027;-69
2022/07/18 13:54:10;;;;;;;;;;;;;;;;;;4996753;28;19927;-67
2022/07/18 13:56:35;;;;;;;;;;;;;;;;;;4996237;28;20351;-68
2022/07/18 13:59:00;;;;;;;;;;;;;;;;;;4996717;28;19921;-68
2022/07/18 14:01:25;;;;;;;;;;;;;;;;;;4996443;28;19940;-68
2022/07/18 14:03:50;;;;;;;;;;;;;;;;;;4995931;28;19913;-67
2022/07/18 14:06:16;;;;;;;;;;;;;;;;;;4989062;28;19945;-68
2022/07/18 14:08:41;;;;;;;;;;;;;;;;;;4992888;28;20368;-68
2022/07/18 14:11:06;;;;;;;;;;;;;;;;;;4993481;28;19939;-68
2022/07/18 14:13:31;;;;;;;;;;;;;;;;;;4993761;28;19917;-68
2022/07/18 14:15:56;;;;;;;;;;;;;;;;;;4991648;28;19917;-68
2022/07/18 14:18:21;;;;;;;;;;;;;;;;;;4994226;28;19925;-68
2022/07/18 14:20:46;;;;;;;;;;;;;;;;;;4994040;28;19917;-68
2022/07/18 14:23:11;;;;;;;;;;;;;;;;;;4997874;28;19917;-68
2022/07/18 14:25:36;;;;;;;;;;;;;;;;;;4992524;28;19920;-68
2022/07/18 14:28:02;;;;;;;;;;;;;;;;;;4993876;28;20442;-69
2022/07/18 14:30:27;;;;;;;;;;;;;;;;;;4992727;28;19913;-68
2022/07/18 14:32:52;;;;;;;;;;;;;;;;;;4995551;28;19921;-67
2022/07/18 14:35:17;;;;;;;;;;;;;;;;;;4994719;28;19921;-68
2022/07/18 14:37:42;;;;;;;;;;;;;;;;;;4996787;28;19913;-68
2022/07/18 14:40:07;;;;;;;;;;;;;;;;;;4996681;28;20055;-68
2022/07/18 14:42:32;;;;;;;;;;;;;;;;;;4992472;28;20324;-68
2022/07/18 14:44:57;;;;;;;;;;;;;;;;;;4994623;28;19917;-68
2022/07/18 14:47:22;;;;;;;;;;;;;;;;;;4998266;28;20434;-68
2022/07/18 14:49:48;;;;;;;;;;;;;;;;;;4997182;28;19996;-68
2022/07/18 14:52:13;;;;;;;;;;;;;;;;;;4998000;28;19914;-68
2022/07/18 14:54:38;;;;;;;;;;;;;;;;;;4996867;28;19921;-69
2022/07/18 14:57:03;;;;;;;;;;;;;;;;;;4996524;28;20394;-69
2022/07/18 14:59:28;;;;;;;;;;;;;;;;;;4997165;28;19913;-69
2022/07/18 15:01:54;;;;;;;;;;;;;;;;;;4999193;28;19917;-68
2022/07/18 15:04:19;;;;;;;;;;;;;;;;;;4996308;28;20475;-68
2022/07/18 15:06:44;;;;;;;;;;;;;;;;;;4997574;28;19917;-69
2022/07/18 15:09:09;;;;;;;;;;;;;;;;;;4997855;28;20264;-68
2022/07/18 15:11:34;;;;;;;;;;;;;;;;;;4996078;28;20191;-68
2022/07/18 15:13:59;;;;;;;;;;;;;;;;;;4998448;28;20376;-68
2022/07/18 15:16:24;;;;;;;;;;;;;;;;;;4996918;28;19917;-68
2022/07/18 15:18:49;;;;;;;;;;;;;;;;;;4999051;28;19940;-68
2022/07/18 15:21:14;;;;;;;;;;;;;;;;;;5012211;28;20433;-68
2022/07/18 15:23:40;;;;;;;;;;;;;;;;;;4997479;28;19917;-68
2022/07/18 15:26:05;;;;;;;;;;;;;;;;;;4999864;28;19913;-69
2022/07/18 15:28:30;;;;;;;;;;;;;;;;;;4995647;28;20280;-69
2022/07/18 15:30:55;;;;;;;;;;;;;;;;;;4996501;28;20019;-67
2022/07/18 15:33:21;;;;;;;;;;;;;;;;;;4997580;28;19917;-69
2022/07/18 15:35:46;;;;;;;;;;;;;;;;;;5001566;28;20031;-69
2022/07/18 15:38:11;;;;;;;;;;;;;;;;;;5005940;28;19928;-69
2022/07/18 15:40:36;;;;;;;;;;;;;;;;;;5007203;28;19951;-69
2022/07/18 15:43:01;;;;;;;;;;;;;;;;;;5009158;28;19914;-68
2022/07/18 15:45:26;;;;;;;;;;;;;;;;;;5008420;28;20304;-69
2022/07/18 15:47:51;;;;;;;;;;;;;;;;;;5008932;28;19917;-69
2022/07/18 15:50:16;;;;;;;;;;;;;;;;;;5007669;28;19918;-69
2022/07/18 15:52:41;;;;;;;;;;;;;;;;;;5003790;28;19913;-69
2022/07/18 15:55:07;;;;;;;;;;;;;;;;;;5003887;28;20245;-69
2022/07/18 15:57:32;;;;;;;;;;;;;;;;;;5022402;28;19948;-69
2022/07/18 15:59:57;;;;;;;;;;;;;;;;;;5003702;28;20344;-70
2022/07/18 16:02:22;;;;;;;;;;;;;;;;;;5006686;28;19910;-69
2022/07/18 16:04:47;;;;;;;;;;;;;;;;;;5000778;28;20031;-70
2022/07/18 16:07:13;;;;;;;;;;;;;;;;;;5006157;28;20272;-69
2022/07/18 16:09:40;;;;;;;;;;;;;;;;;;4999383;28;19949;-70
2022/07/18 16:12:05;;;;;;;;;;;;;;;;;;5004569;28;19910;-69
2022/07/18 16:14:30;;;;;;;;;;;;;;;;;;5004550;28;19963;-70
2022/07/18 16:16:55;;;;;;;;;;;;;;;;;;5007681;28;19909;-69
2022/07/18 16:19:20;;;;;;;;;;;;;;;;;;5005489;28;20253;-69
2022/07/18 16:21:45;;;;;;;;;;;;;;;;;;5005926;28;19924;-69
2022/07/18 16:24:10;;;;;;;;;;;;;;;;;;5005583;28;19905;-69
2022/07/18 16:26:35;;;;;;;;;;;;;;;;;;5006967;28;19913;-69
2022/07/18 16:29:01;;;;;;;;;;;;;;;;;;5004400;28;20291;-69
2022/07/18 16:31:26;;;;;;;;;;;;;;;;;;5004826;28;20069;-69
2022/07/18 16:33:51;;;;;;;;;;;;;;;;;;5005365;28;19913;-70